createdAt,value
2023-02-01T00:01:13.219Z,7.1
2023-02-01T00:06:19.430Z,7.1
2023-02-01T00:11:25.636Z,7.0
2023-02-01T00:16:31.857Z,7.0
2023-02-01T00:21:38.054Z,7.0
2023-02-01T00:26:44.328Z,7.1
2023-02-01T00:31:49.523Z,7.1
2023-02-01T00:36:55.703Z,7.2
2023-02-01T00:42:00.954Z,7.2
2023-02-01T00:47:07.146Z,7.3
2023-02-01T00:52:13.359Z,7.3
2023-02-01T00:57:19.564Z,7.4
2023-02-01T01:02:25.777Z,7.4
2023-02-01T01:07:31.974Z,7.4
2023-02-01T01:12:38.187Z,7.5
2023-02-01T01:17:44.398Z,7.5
2023-02-01T01:22:50.611Z,7.6
2023-02-01T01:27:56.827Z,7.6
2023-02-01T01:33:03.017Z,7.6
2023-02-01T01:38:09.220Z,7.7
2023-02-01T01:43:15.431Z,7.7
2023-02-01T01:48:21.635Z,7.7
2023-02-01T01:53:27.847Z,7.7
2023-02-01T01:58:34.057Z,7.7
2023-02-01T02:03:40.266Z,7.7
2023-02-01T02:08:46.468Z,7.7
2023-02-01T02:13:52.701Z,7.7
2023-02-01T02:18:58.886Z,7.7
2023-02-01T02:24:05.088Z,7.7
2023-02-01T02:29:10.326Z,7.7
2023-02-01T02:34:16.862Z,7.6
2023-02-01T02:39:21.777Z,7.6
2023-02-01T02:44:27.976Z,7.5
2023-02-01T02:49:34.191Z,7.4
2023-02-01T02:54:40.393Z,7.4
2023-02-01T02:59:46.604Z,7.3
2023-02-01T03:04:52.808Z,7.2
2023-02-01T03:09:59.214Z,7.2
2023-02-01T03:15:05.238Z,7.2
2023-02-01T03:20:11.432Z,7.1
2023-02-01T03:25:17.676Z,7.2
2023-02-01T03:30:24.293Z,7.2
2023-02-01T03:35:30.066Z,7.2
2023-02-01T03:40:36.264Z,7.2
2023-02-01T03:45:42.491Z,7.3
2023-02-01T03:50:48.681Z,7.3
2023-02-01T03:55:54.887Z,7.2
2023-02-01T04:01:01.221Z,7.2
2023-02-01T04:06:07.317Z,7.2
2023-02-01T04:11:13.545Z,7.2
2023-02-01T04:16:19.762Z,7.2
2023-02-01T04:21:26.039Z,7.2
2023-02-01T04:26:31.261Z,7.2
2023-02-01T04:31:37.673Z,7.2
2023-02-01T04:36:42.602Z,7.1
2023-02-01T04:41:48.810Z,7.1
2023-02-01T04:46:55.018Z,7.1
2023-02-01T04:52:01.224Z,7.1
2023-02-01T04:57:07.431Z,7.1
2023-02-01T05:02:13.644Z,7.1
2023-02-01T05:07:19.855Z,7.1
2023-02-01T05:12:26.090Z,7.1
2023-02-01T05:17:32.261Z,7.1
2023-02-01T05:22:38.473Z,7.1
2023-02-01T05:27:44.682Z,7.2
2023-02-01T05:32:50.907Z,7.3
2023-02-01T05:37:57.099Z,7.3
2023-02-01T05:43:03.315Z,7.4
2023-02-01T05:48:09.516Z,7.5
2023-02-01T05:53:16.033Z,7.5
2023-02-01T05:58:21.925Z,7.5
2023-02-01T06:03:28.184Z,7.6
2023-02-01T06:08:34.364Z,7.6
2023-02-01T06:13:40.548Z,7.6
2023-02-01T06:18:46.755Z,7.6
2023-02-01T06:23:52.004Z,7.7
2023-02-01T06:28:58.217Z,7.7
2023-02-01T06:34:04.469Z,7.7
2023-02-01T06:39:09.695Z,7.8
2023-02-01T06:44:15.863Z,7.8
2023-02-01T06:49:22.072Z,7.8
2023-02-01T06:54:28.268Z,7.9
2023-02-01T06:59:34.474Z,7.9
2023-02-01T07:04:40.686Z,8.0
2023-02-01T07:09:46.897Z,8.1
2023-02-01T07:14:53.112Z,8.2
2023-02-01T07:19:59.306Z,8.3
2023-02-01T07:25:06.665Z,8.3
2023-02-01T07:30:11.726Z,8.4
2023-02-01T07:35:17.931Z,8.4
2023-02-01T07:40:24.492Z,8.4
2023-02-01T07:45:30.377Z,8.4
2023-02-01T07:50:36.559Z,8.5
2023-02-01T07:55:42.765Z,8.5
2023-02-01T08:00:49.027Z,8.5
2023-02-01T08:05:55.183Z,8.4
2023-02-01T08:11:01.380Z,8.5
2023-02-01T08:16:07.676Z,8.5
2023-02-01T08:21:13.826Z,8.5
2023-02-01T08:26:19.109Z,8.5
2023-02-01T08:31:25.323Z,8.5
2023-02-01T08:36:30.486Z,8.5
2023-02-01T08:41:36.710Z,8.5
2023-02-01T08:46:42.888Z,8.6
2023-02-01T08:51:49.106Z,8.6
2023-02-01T08:56:55.383Z,8.7
2023-02-01T09:02:01.546Z,8.7
2023-02-01T09:07:07.733Z,8.8
2023-02-01T09:12:13.950Z,8.8
2023-02-01T09:17:20.170Z,8.9
2023-02-01T09:22:26.367Z,8.9
2023-02-01T09:27:32.581Z,9.0
2023-02-01T09:32:38.775Z,9.1
2023-02-01T09:37:44.978Z,9.2
2023-02-01T09:42:51.247Z,9.2
2023-02-01T09:47:57.394Z,9.3
2023-02-01T09:53:03.624Z,9.4
2023-02-01T09:58:09.816Z,9.5
2023-02-01T10:03:16.028Z,9.6
2023-02-01T10:08:22.566Z,9.6
2023-02-01T10:13:28.428Z,9.7
2023-02-01T10:18:34.643Z,9.8
2023-02-01T10:23:39.877Z,9.9
2023-02-01T10:28:46.085Z,10.0
2023-02-01T10:33:52.408Z,10.1
2023-02-01T10:38:58.498Z,10.2
2023-02-01T10:44:04.715Z,10.2
2023-02-01T10:49:11.017Z,10.2
2023-02-01T10:54:17.124Z,10.2
2023-02-01T10:59:23.342Z,10.2
2023-02-01T11:04:29.542Z,10.2
2023-02-01T11:09:35.751Z,10.2
2023-02-01T11:14:41.960Z,10.2
2023-02-01T11:19:48.172Z,10.2
2023-02-01T11:24:54.374Z,10.3
2023-02-01T11:30:00.584Z,10.3
2023-02-01T11:35:06.810Z,10.3
2023-02-01T11:40:13.056Z,10.3
2023-02-01T11:45:19.208Z,10.3
2023-02-01T11:50:25.755Z,10.3
2023-02-01T11:55:31.615Z,10.3
2023-02-01T12:00:37.830Z,10.3
2023-02-01T12:05:44.037Z,10.3
2023-02-01T12:10:49.271Z,10.3
2023-02-01T12:15:55.492Z,10.3
2023-02-01T12:21:00.712Z,10.3
2023-02-01T12:26:06.924Z,10.3
2023-02-01T12:31:13.132Z,10.3
2023-02-01T12:36:19.342Z,10.3
2023-02-01T12:41:25.550Z,10.3
2023-02-01T12:46:31.753Z,10.3
2023-02-01T12:51:37.959Z,10.3
2023-02-01T12:56:44.185Z,10.3
2023-02-01T13:01:50.381Z,10.3
2023-02-01T13:06:56.630Z,10.4
2023-02-01T13:12:02.804Z,10.4
2023-02-01T13:17:09.004Z,10.5
2023-02-01T13:22:15.225Z,10.6
2023-02-01T13:27:21.423Z,10.7
2023-02-01T13:33:18.199Z,10.8
2023-02-01T13:37:33.847Z,10.9
2023-02-01T13:42:40.077Z,10.9
2023-02-01T13:47:46.251Z,11.0
2023-02-01T13:52:52.471Z,11.0
2023-02-01T13:57:58.667Z,11.0
2023-02-01T14:03:04.882Z,11.1
2023-02-01T14:08:10.110Z,11.1
2023-02-01T14:13:16.324Z,11.1
2023-02-01T14:18:21.559Z,11.1
2023-02-01T14:23:27.770Z,11.1
2023-02-01T14:28:34.081Z,11.1
2023-02-01T14:33:40.201Z,11.1
2023-02-01T14:38:46.390Z,11.0
2023-02-01T14:43:52.626Z,11.0
2023-02-01T14:48:58.953Z,11.0
2023-02-01T14:54:05.043Z,11.0
2023-02-01T14:59:11.225Z,10.9
2023-02-01T15:04:17.474Z,10.9
2023-02-01T15:09:23.645Z,10.9
2023-02-01T15:14:29.847Z,10.9
2023-02-01T15:19:36.058Z,10.9
2023-02-01T15:24:41.282Z,10.9
2023-02-01T15:29:47.503Z,10.8
2023-02-01T15:34:53.699Z,10.8
2023-02-01T15:39:59.920Z,10.8
2023-02-01T15:45:06.121Z,10.8
2023-02-01T15:50:12.326Z,10.7
2023-02-01T15:55:18.531Z,10.7
2023-02-01T16:00:24.758Z,10.7
2023-02-01T16:05:29.974Z,10.7
2023-02-01T16:10:36.188Z,10.7
2023-02-01T16:15:42.618Z,10.7
2023-02-01T16:20:48.606Z,10.7
2023-02-01T16:25:53.853Z,10.7
2023-02-01T16:31:00.123Z,10.7
2023-02-01T16:36:06.297Z,10.7
2023-02-01T16:41:12.462Z,10.7
2023-02-01T16:46:18.667Z,10.7
2023-02-01T16:51:24.880Z,10.7
2023-02-01T16:56:31.191Z,10.7
2023-02-01T17:01:37.323Z,10.7
2023-02-01T17:06:43.497Z,10.7
2023-02-01T17:11:49.707Z,10.7
2023-02-01T17:16:55.959Z,10.8
2023-02-01T17:22:02.365Z,10.8
2023-02-01T17:27:08.359Z,10.8
2023-02-01T17:32:14.562Z,10.8
2023-02-01T17:37:20.760Z,10.8
2023-02-01T17:42:26.956Z,10.8
2023-02-01T17:47:33.164Z,10.8
2023-02-01T17:52:39.374Z,10.8
2023-02-01T17:57:45.597Z,10.8
2023-02-01T18:02:51.821Z,10.7
2023-02-01T18:07:58.027Z,10.7
2023-02-01T18:13:03.255Z,10.8
2023-02-01T18:18:09.448Z,10.8
2023-02-01T18:23:15.792Z,10.8
2023-02-01T18:28:20.877Z,10.8
2023-02-01T18:33:27.105Z,10.8
2023-02-01T18:38:33.419Z,10.8
2023-02-01T18:43:39.505Z,10.8
2023-02-01T18:48:45.718Z,10.8
2023-02-01T18:53:51.919Z,10.8
2023-02-01T18:58:58.147Z,10.8
2023-02-01T19:04:07.763Z,10.8
2023-02-01T19:09:10.555Z,10.7
2023-02-01T19:14:16.764Z,10.8
2023-02-01T19:19:22.960Z,10.8
2023-02-01T19:24:29.172Z,10.8
2023-02-01T19:29:35.373Z,10.8
2023-02-01T19:34:41.608Z,10.8
2023-02-01T19:39:47.951Z,10.8
2023-02-01T19:44:54.018Z,10.8
2023-02-01T19:50:00.226Z,10.8
2023-02-01T19:55:06.417Z,10.8
2023-02-01T20:00:12.134Z,10.8
2023-02-01T20:05:17.978Z,10.9
2023-02-01T20:10:24.187Z,10.8
2023-02-01T20:15:29.425Z,10.9
2023-02-01T20:20:35.674Z,10.9
2023-02-01T20:25:42.710Z,10.9
2023-02-01T20:30:47.989Z,10.9
2023-02-01T20:35:54.153Z,10.9
2023-02-01T20:41:00.389Z,10.9
2023-02-01T20:46:06.600Z,10.9
2023-02-01T20:51:12.790Z,10.9
2023-02-01T20:56:19.006Z,11.0
2023-02-01T21:01:25.213Z,11.0
2023-02-01T21:06:31.742Z,11.0
2023-02-01T21:11:37.637Z,11.0
2023-02-01T21:16:43.981Z,11.0
2023-02-01T21:21:50.061Z,11.0
2023-02-01T21:26:56.308Z,11.0
2023-02-01T21:32:02.562Z,11.1
2023-02-01T21:37:08.704Z,11.1
2023-02-01T21:42:14.907Z,11.1
2023-02-01T21:47:21.360Z,11.1
2023-02-01T21:52:27.611Z,11.1
2023-02-01T21:57:33.531Z,11.1
2023-02-01T22:02:39.782Z,11.0
2023-02-01T22:07:45.923Z,11.0
2023-02-01T22:12:52.133Z,11.0
2023-02-01T22:17:57.373Z,11.0
2023-02-01T22:23:03.713Z,11.0
2023-02-01T22:28:33.887Z,10.9
2023-02-01T22:33:15.018Z,10.9
2023-02-01T22:38:21.222Z,10.9
2023-02-01T22:43:27.420Z,10.8
2023-02-01T22:48:33.627Z,10.8
2023-02-01T22:53:39.837Z,10.8
2023-02-01T22:58:46.063Z,10.8
2023-02-01T23:03:52.252Z,10.8
2023-02-01T23:08:58.449Z,10.8
2023-02-01T23:14:04.647Z,10.7
2023-02-01T23:19:10.851Z,10.7
2023-02-01T23:24:17.062Z,10.6
2023-02-01T23:29:23.270Z,10.6
2023-02-01T23:34:29.474Z,10.5
2023-02-01T23:39:35.684Z,10.5
2023-02-01T23:44:41.894Z,10.5
2023-02-01T23:49:48.096Z,10.5
2023-02-01T23:54:54.311Z,10.5
